BIKFBGKK

Guest
Details From BIKF - Keflavik
To BGKK - Kulusuk
Flight Number -
Tags generated
Created
Modified
Stats Distance 387 nm / 716 km
Max Altitude 35,000 ft / 10,668 m
Waypoints 5
Social Downloads 0
Likes 0
Share VATSIM

Download

Looking for another format? Having issues loading an existing format? Contact us
Advertisement - Login to hide

Notes

Basic altitude profile: - Ascent Rate: 2500ft/min - Ascent Speed: 250kts - Cruise Altitude: 25000ft - Cruise Speed: 420kts - Descent Rate: 1500ft/min - Descent Speed: 250kts Options: - Use NATs: yes - Use PACOTS: yes - Use low airways: yes - Use high airways: yes

Route

BIKF KEF 5E72 DA BGKK

ID Type Via Altitude (ft/m) Position (lat/lon) Dist (leg/tot) Name
O BIKF APT - 0 / 0 63.98161 / -22.61456 - / 0 nm Keflavik
KEF VOR - 100 / 30 63.98681 / -22.61450 0 / 0 nm KEFLAVIK VORTAC
GIMLI FIX 5E72 (AWY-HI) 35,000 / 10,668 64.64000 / -26.97833 120 / 120 nm
DA NDB 5E72 (AWY-HI) 400 / 122 65.57056 / -37.20694 264 / 384 nm KULUSUK NDB
O BGKK APT - 0 / 0 65.57361 / -37.12361 2 / 386 nm Kulusuk

Altitude Profile

Advertisement - Login to hide

Weather


0- 5 10 15 20 25 30 35+ Temperature / °C

Clouds and Precipitation
Forecast for 2019-05-19 18:00 UTC. Updated 3 hours ago

Ground ~20,000 ft ~40,000 ft Winds

BIKF

Details ICAO BIKF (KEF)
Name Keflavik
Region Iceland
Timezone Atlantic/Reykjavik (UTC+0.0)
Stats Elevation 168 ft / 51 m (AMSL)
Location 63.981600° -22.614600°
Runways 2
Magnetic Variation 13.688° W

METAR

BIKF 191830Z 26005KT 230V290 9999 FEW007 BKN011 08/07 Q1015

Decode

TAF

TAF BIKF 191607Z 1918/2018 24008KT 9999 -RADZ SCT015 BKN020 OVC028 TX10/2015Z TN06/2006Z TEMPO 1918/2007 3000 DZ BR BKN005 OVC010

Decode

Departure Runways

ID Width Length Bearing (true/mag) Surface Threshold Overrun Markings Lighting
01 197 ft / 60 m 9,997 ft / 3,047 m 0.01° / 13.70° ASPHALT 0 ft / 0 m 479 ft / 146 m PREC-APP CENTERLINE EDGE THRESHOLD REIL-OMNI
10 200 ft / 61 m 10,004 ft / 3,049 m 89.95° / 103.64° ASPHALT 0 ft / 0 m 259 ft / 79 m PREC-APP CENTERLINE EDGE THRESHOLD ALSF-II TDZ REIL-OMNI
19 197 ft / 60 m 9,997 ft / 3,047 m 180.01° / 193.70° ASPHALT 0 ft / 0 m 85 ft / 26 m PREC-APP CENTERLINE EDGE THRESHOLD ALSF-II TDZ REIL-OMNI
28 200 ft / 61 m 10,004 ft / 3,049 m 270.01° / 283.70° ASPHALT 0 ft / 0 m 220 ft / 67 m PREC-APP CENTERLINE EDGE THRESHOLD ODALS REIL-OMNI

BGKK

Details ICAO BGKK
Name Kulusuk
Region Greenland
Timezone America/Godthab (UTC-2.0)
Stats Elevation 113 ft / 34 m (AMSL)
Location 65.573600° -37.123600°
Runways 1
Magnetic Variation 21.851° W

METAR

BGKK 191750Z AUTO 09010KT 9999NDV -RA OVC018/// 02/M00 Q1025

Decode

TAF

Not found

Destination Runways

ID Width Length Bearing (true/mag) Surface Threshold Overrun Markings Lighting
11 98 ft / 30 m 3,938 ft / 1,200 m 83.99° / 105.84° GRAVEL 0 ft / 0 m 0 ft / 0 m VISUAL EDGE THRESHOLD
29 98 ft / 30 m 3,938 ft / 1,200 m 264.01° / 285.86° GRAVEL 0 ft / 0 m 0 ft / 0 m VISUAL EDGE THRESHOLD

Popular Alternatives